Time;durP1;ratioP1;P1;durP2;ratioP2;P2;SDS_P1;SDS_P2;PMS_P1;PMS_P2;Temp;Humidity;BMP_temperature;BMP_pressure;BME280_temperature;BME280_humidity;BME280_pressure;Samples;Min_cycle;Max_cycle;Signal;HPM_P1;HPM_P2
2021/12/03 00:00:20;;;;;;;5.53;2.80;;;;;;;0.57;100.00;101125.94;4994526;28;20038;-71
2021/12/03 00:02:45;;;;;;;7.60;2.92;;;;;;;0.55;100.00;101130.31;4994850;28;20053;-70
2021/12/03 00:05:11;;;;;;;7.15;3.47;;;;;;;0.56;100.00;101128.56;4996098;28;20030;-71
2021/12/03 00:07:40;;;;;;;9.43;3.10;;;;;;;0.58;100.00;101126.81;4995243;28;20041;-70
2021/12/03 00:10:07;;;;;;;8.02;3.17;;;;;;;0.61;100.00;101134.63;4994509;28;20042;-69
2021/12/03 00:12:32;;;;;;;6.90;2.95;;;;;;;0.60;100.00;101144.22;4999857;28;20072;-70
2021/12/03 00:14:57;;;;;;;6.75;3.22;;;;;;;0.63;100.00;101140.72;5026246;28;20017;-70
2021/12/03 00:17:23;;;;;;;8.30;3.33;;;;;;;0.69;100.00;101145.97;5033436;28;20047;-70
2021/12/03 00:19:48;;;;;;;9.55;3.30;;;;;;;0.70;100.00;101133.78;5031943;28;20160;-70
2021/12/03 00:22:13;;;;;;;7.75;3.30;;;;;;;0.70;100.00;101139.84;5015694;28;20120;-70
2021/12/03 00:24:39;;;;;;;7.32;3.08;;;;;;;0.71;100.00;101141.59;5028272;28;20025;-71
2021/12/03 00:27:06;;;;;;;7.32;3.13;;;;;;;0.74;100.00;101138.13;5012967;28;20437;-71
2021/12/03 00:29:31;;;;;;;7.82;3.25;;;;;;;0.76;100.00;101142.47;5014209;28;20117;-71
2021/12/03 00:31:56;;;;;;;11.48;3.40;;;;;;;0.77;100.00;101144.22;5013479;28;20100;-72
2021/12/03 00:34:22;;;;;;;9.40;3.83;;;;;;;0.80;100.00;101133.78;5013440;28;20060;-71
2021/12/03 00:36:48;;;;;;;10.00;4.10;;;;;;;0.82;100.00;101144.22;5030523;28;20039;-71
2021/12/03 00:39:13;;;;;;;9.68;3.35;;;;;;;0.82;100.00;101139.88;5033211;28;20026;-71
2021/12/03 00:41:46;;;;;;;11.35;3.60;;;;;;;0.79;100.00;101142.47;5031493;28;20036;-70
2021/12/03 00:44:11;;;;;;;10.75;3.60;;;;;;;0.77;100.00;101140.75;5032895;28;20072;-71
2021/12/03 00:46:36;;;;;;;9.35;3.38;;;;;;;0.76;100.00;101137.25;5022267;28;20061;-69
2021/12/03 00:49:02;;;;;;;11.45;3.67;;;;;;;0.77;100.00;101138.13;5013230;28;20381;-70
2021/12/03 00:51:28;;;;;;;10.82;3.92;;;;;;;0.75;100.00;101132.03;5014315;28;20034;-69
2021/12/03 00:53:53;;;;;;;9.25;3.85;;;;;;;0.74;100.00;101135.50;5013155;28;20080;-70
2021/12/03 00:56:19;;;;;;;9.60;3.40;;;;;;;0.77;100.00;101140.75;5015923;28;20100;-70
2021/12/03 00:58:45;;;;;;;9.93;4.18;;;;;;;0.77;100.00;101140.75;5033223;28;20025;-70
2021/12/03 01:01:10;;;;;;;10.32;4.00;;;;;;;0.79;100.00;101136.38;5030873;28;20091;-70
2021/12/03 01:03:37;;;;;;;10.90;3.80;;;;;;;0.81;100.00;101127.69;5032812;28;20061;-70
2021/12/03 01:06:04;;;;;;;8.82;3.58;;;;;;;0.83;100.00;101135.50;5032757;28;20018;-70
2021/12/03 01:08:31;;;;;;;15.40;4.05;;;;;;;0.82;100.00;101123.38;4999527;28;20446;-71
2021/12/03 01:10:57;;;;;;;10.18;3.60;;;;;;;0.85;100.00;101125.97;5013018;28;20026;-71
2021/12/03 01:13:22;;;;;;;12.23;3.45;;;;;;;0.89;100.00;101124.22;5013781;28;20045;-72
2021/12/03 01:15:48;;;;;;;9.27;3.38;;;;;;;0.92;100.00;101117.28;5012531;28;20076;-71
2021/12/03 01:18:14;;;;;;;10.93;3.15;;;;;;;0.94;100.00;101112.91;5020707;28;20034;-70
2021/12/03 01:20:41;;;;;;;8.63;2.90;;;;;;;0.99;100.00;101125.97;5032565;28;20029;-69
2021/12/03 01:23:09;;;;;;;7.70;2.80;;;;;;;1.01;100.00;101123.34;5030721;28;20484;-70
2021/12/03 01:25:34;;;;;;;9.88;3.00;;;;;;;1.03;100.00;101125.06;5032478;28;20021;-72
2021/12/03 01:28:01;;;;;;;10.80;3.45;;;;;;;1.09;100.00;101127.69;5020307;28;20030;-72
2021/12/03 01:30:28;;;;;;;6.50;2.63;;;;;;;1.15;100.00;101124.19;5032085;28;20025;-72
2021/12/03 01:32:55;;;;;;;12.55;2.70;;;;;;;1.20;100.00;101132.03;5032164;28;20393;-70
2021/12/03 01:35:21;;;;;;;10.20;2.47;;;;;;;1.21;100.00;101133.75;5013781;28;20026;-71
2021/12/03 01:37:47;;;;;;;7.15;2.38;;;;;;;1.24;100.00;101132.03;5013898;28;20037;-72
2021/12/03 01:40:17;;;;;;;11.30;2.70;;;;;;;1.25;100.00;101133.78;5017858;28;20109;-71
2021/12/03 01:42:45;;;;;;;7.78;2.83;;;;;;;1.30;100.00;101136.34;5016569;28;20038;-71
2021/12/03 01:45:13;;;;;;;8.70;2.58;;;;;;;1.29;100.00;101130.28;5017480;28;20037;-70
2021/12/03 01:47:41;;;;;;;13.60;2.50;;;;;;;1.23;100.00;101129.41;5016224;28;20065;-72
2021/12/03 01:50:07;;;;;;;5.93;2.45;;;;;;;1.24;100.00;101131.13;5023527;28;20029;-71
2021/12/03 01:52:33;;;;;;;9.63;2.50;;;;;;;1.22;100.00;101125.06;5035804;28;20104;-71
2021/12/03 01:55:00;;;;;;;7.03;2.38;;;;;;;1.22;100.00;101127.69;5034460;28;20529;-72
2021/12/03 01:57:25;;;;;;;9.15;2.25;;;;;;;1.25;100.00;101122.44;5036255;28;20037;-72
2021/12/03 01:59:51;;;;;;;4.45;2.20;;;;;;;1.30;100.00;101116.38;5035852;28;20025;-73
2021/12/03 02:02:16;;;;;;;10.23;2.38;;;;;;;1.41;100.00;101113.72;4998969;28;20109;-72
2021/12/03 02:04:41;;;;;;;5.00;2.15;;;;;;;1.47;100.00;101118.94;5016311;28;20044;-72
2021/12/03 02:07:07;;;;;;;7.30;2.05;;;;;;;1.53;100.00;101104.13;5032753;28;20064;-70
2021/12/03 02:09:33;;;;;;;8.73;2.30;;;;;;;1.52;100.00;101102.38;5036139;28;20033;-70
2021/12/03 02:11:58;;;;;;;6.40;1.75;;;;;;;1.47;100.00;101089.31;5034147;28;20076;-70
2021/12/03 02:14:24;;;;;;;4.80;1.92;;;;;;;1.44;100.00;101089.34;5035956;28;20044;-70
2021/12/03 02:16:49;;;;;;;6.10;2.05;;;;;;;1.39;100.00;101091.09;5033733;28;20029;-70
2021/12/03 02:19:15;;;;;;;6.25;2.38;;;;;;;1.37;100.00;101091.13;5035708;28;20109;-70
2021/12/03 02:21:41;;;;;;;6.38;2.30;;;;;;;1.37;100.00;101105.88;5031222;28;20050;-70
2021/12/03 02:24:06;;;;;;;7.85;2.42;;;;;;;1.44;100.00;101100.66;5015942;28;20050;-70
2021/12/03 02:26:32;;;;;;;10.48;2.47;;;;;;;1.48;100.00;101111.94;5016849;28;20036;-70
2021/12/03 02:28:57;;;;;;;6.97;2.22;;;;;;;1.46;100.00;101119.78;5015712;28;20032;-70
2021/12/03 02:31:24;;;;;;;9.07;2.67;;;;;;;1.47;100.00;101126.75;5015540;28;20058;-70
2021/12/03 02:33:49;;;;;;;6.68;2.20;;;;;;;1.46;100.00;101113.72;5013585;28;20053;-70
2021/12/03 02:36:17;;;;;;;5.07;2.00;;;;;;;1.39;100.00;101115.44;5033661;28;20404;-70
2021/12/03 02:38:42;;;;;;;7.30;1.98;;;;;;;1.37;100.00;101104.16;5020022;28;20509;-71
2021/12/03 02:41:08;;;;;;;6.53;2.03;;;;;;;1.42;100.00;101101.53;5015627;28;20025;-72
2021/12/03 02:43:34;;;;;;;10.80;2.15;;;;;;;1.44;100.00;101099.78;5024917;28;20033;-71
2021/12/03 02:45:59;;;;;;;7.35;2.30;;;;;;;1.50;100.00;101099.78;5033624;28;20030;-71
2021/12/03 02:48:26;;;;;;;7.45;2.13;;;;;;;1.54;100.00;101098.88;5034156;28;20392;-71
2021/12/03 02:50:51;;;;;;;16.25;2.50;;;;;;;1.60;100.00;101100.63;5035030;28;20438;-71
2021/12/03 02:53:17;;;;;;;9.40;2.25;;;;;;;1.66;100.00;101092.75;5033156;28;20061;-70
2021/12/03 02:55:42;;;;;;;9.25;2.20;;;;;;;1.76;100.00;101086.59;5016249;28;20077;-70
2021/12/03 02:58:08;;;;;;;6.90;2.03;;;;;;;1.86;100.00;101090.06;5016510;28;20118;-70
2021/12/03 03:00:34;;;;;;;7.43;2.20;;;;;;;1.95;100.00;101095.22;4997365;28;20121;-71
2021/12/03 03:03:00;;;;;;;9.05;2.50;;;;;;;2.02;100.00;101101.31;5014788;28;20113;-71
2021/12/03 03:05:27;;;;;;;7.47;2.00;;;;;;;2.08;100.00;101095.16;5029172;28;20104;-70
2021/12/03 03:07:52;;;;;;;6.72;2.58;;;;;;;2.11;100.00;101089.91;5032911;28;20105;-71
2021/12/03 03:10:24;;;;;;;10.52;2.50;;;;;;;2.10;100.00;101085.59;5017010;28;20040;-72
2021/12/03 03:12:50;;;;;;;5.18;1.83;;;;;;;2.10;100.00;101078.59;5034587;28;20076;-72
2021/12/03 03:15:16;;;;;;;5.13;1.92;;;;;;;2.13;100.00;101096.00;5009362;28;20053;-71
2021/12/03 03:17:42;;;;;;;6.60;2.33;;;;;;;2.13;100.00;101083.81;5014665;28;20032;-71
2021/12/03 03:20:09;;;;;;;8.50;1.80;;;;;;;2.15;100.00;101086.44;5016578;28;20030;-72
2021/12/03 03:22:37;;;;;;;6.00;1.98;;;;;;;2.16;100.00;101075.06;5014585;28;20105;-70
2021/12/03 03:25:04;;;;;;;3.45;1.42;;;;;;;2.18;100.00;101062.88;5014990;28;20026;-71
2021/12/03 03:27:30;;;;;;;7.40;1.63;;;;;;;2.24;100.00;101049.78;5016601;28;20124;-71
2021/12/03 03:29:56;;;;;;;8.40;1.80;;;;;;;2.31;100.00;101044.53;5034275;28;20025;-71
2021/12/03 03:32:22;;;;;;;6.20;1.13;;;;;;;2.39;99.71;101058.38;5032270;28;20116;-69
2021/12/03 03:34:48;;;;;;;3.80;1.38;;;;;;;2.47;99.87;101048.75;5034425;28;20137;-69
2021/12/03 03:37:14;;;;;;;8.10;1.30;;;;;;;2.55;99.54;101053.91;5021769;28;20029;-71
2021/12/03 03:39:40;;;;;;;4.00;1.67;;;;;;;2.63;98.79;101044.25;5014463;28;20180;-69
2021/12/03 03:42:06;;;;;;;10.40;1.42;;;;;;;2.67;98.09;101045.94;5015418;28;20049;-68
2021/12/03 03:44:31;;;;;;;6.15;1.27;;;;;;;2.69;98.42;101041.59;5014224;28;20466;-69
2021/12/03 03:46:57;;;;;;;5.72;1.58;;;;;;;2.70;98.02;101039.81;5017936;28;20025;-71
2021/12/03 03:49:24;;;;;;;7.53;1.73;;;;;;;2.69;98.28;101043.34;5033621;28;20371;-69
2021/12/03 03:51:52;;;;;;;8.57;2.03;;;;;;;2.64;98.39;101034.69;5033895;28;20099;-69
2021/12/03 03:54:18;;;;;;;5.50;2.08;;;;;;;2.61;98.16;101028.59;5032797;28;20053;-69
2021/12/03 03:56:45;;;;;;;5.95;2.45;;;;;;;2.64;98.85;101035.53;5033774;28;20031;-71
2021/12/03 03:59:11;;;;;;;9.73;2.60;;;;;;;2.63;98.74;101023.34;5016881;28;20038;-71
2021/12/03 04:01:37;;;;;;;11.98;2.45;;;;;;;2.67;98.94;101032.03;4995537;28;20038;-71
2021/12/03 04:04:03;;;;;;;5.10;2.10;;;;;;;2.72;99.45;101028.47;5014699;28;20382;-71
2021/12/03 04:06:28;;;;;;;8.57;2.03;;;;;;;2.85;99.79;101017.91;5013948;28;20030;-71
2021/12/03 04:08:53;;;;;;;7.82;1.95;;;;;;;2.90;99.70;101019.59;5022706;28;20030;-69
2021/12/03 04:11:22;;;;;;;6.38;2.17;;;;;;;2.93;99.30;101013.47;5033601;28;20091;-71
2021/12/03 04:13:48;;;;;;;12.52;2.38;;;;;;;2.92;99.41;101022.19;5031761;28;20552;-71
2021/12/03 04:16:13;;;;;;;6.65;2.55;;;;;;;2.92;99.65;101024.81;5015878;28;20116;-71
2021/12/03 04:18:39;;;;;;;9.90;3.03;;;;;;;2.86;99.93;101030.97;5031532;28;20453;-71
2021/12/03 04:21:04;;;;;;;8.50;3.15;;;;;;;2.86;99.93;101035.34;5013460;28;20546;-71
2021/12/03 04:23:30;;;;;;;10.57;2.75;;;;;;;2.82;100.00;101042.34;5013993;28;20080;-70
2021/12/03 04:25:55;;;;;;;11.93;2.67;;;;;;;2.84;100.00;101032.75;5014835;28;20378;-71
2021/12/03 04:28:21;;;;;;;15.82;2.95;;;;;;;2.81;100.00;101021.44;5013546;28;20030;-71
2021/12/03 04:30:50;;;;;;;9.57;2.63;;;;;;;2.86;100.00;101030.09;5027618;28;20032;-72
2021/12/03 04:33:16;;;;;;;11.38;2.78;;;;;;;2.83;100.00;101031.00;5033358;28;20071;-71
2021/12/03 04:35:41;;;;;;;7.07;2.20;;;;;;;2.82;100.00;101005.72;5031289;28;20076;-71
2021/12/03 04:38:07;;;;;;;8.18;2.38;;;;;;;2.83;100.00;101012.69;5033369;28;20063;-70
2021/12/03 04:40:34;;;;;;;10.75;2.22;;;;;;;2.84;100.00;101001.34;5025978;28;20125;-71
2021/12/03 04:43:00;;;;;;;8.52;2.10;;;;;;;2.88;100.00;101012.66;5013517;28;20097;-71
2021/12/03 04:45:27;;;;;;;9.68;2.42;;;;;;;2.93;100.00;100998.63;5014392;28;20030;-70
2021/12/03 04:47:54;;;;;;;14.90;2.40;;;;;;;2.95;99.59;101002.13;5012967;28;20084;-72
2021/12/03 04:50:21;;;;;;;9.50;2.00;;;;;;;3.00;99.80;100999.44;5013565;28;20064;-71
2021/12/03 04:52:47;;;;;;;9.73;2.30;;;;;;;2.99;99.08;101004.69;5032685;28;20188;-71
2021/12/03 04:55:14;;;;;;;7.75;2.15;;;;;;;2.99;99.17;100999.44;5032838;28;20477;-71
2021/12/03 04:57:40;;;;;;;8.45;2.10;;;;;;;3.00;99.40;101002.03;5031099;28;20033;-71
2021/12/03 05:00:12;;;;;;;8.98;2.22;;;;;;;3.05;99.48;100997.63;5032670;28;20474;-72
2021/12/03 05:02:38;;;;;;;6.65;2.33;;;;;;;3.07;99.09;100997.59;5030253;28;20393;-72
2021/12/03 05:05:05;;;;;;;8.95;2.65;;;;;;;3.05;98.51;100994.16;5032367;28;20040;-71
2021/12/03 05:10:03;;;;;;;10.90;2.53;;;;;;;3.04;99.06;100993.28;5032768;28;20107;-70
2021/12/03 05:12:28;;;;;;;8.32;2.70;;;;;;;3.05;99.48;100996.78;5026110;28;20106;-71
2021/12/03 05:14:54;;;;;;;13.10;3.33;;;;;;;3.01;99.27;100988.09;5012747;28;20049;-71
2021/12/03 05:17:19;;;;;;;13.05;3.53;;;;;;;3.06;99.52;100991.50;5013695;28;20463;-71
2021/12/03 05:19:45;;;;;;;9.88;3.10;;;;;;;3.09;99.86;100981.00;5017472;28;20029;-70
2021/12/03 05:22:12;;;;;;;9.85;3.03;;;;;;;3.17;99.50;100980.94;5032112;28;20030;-70
2021/12/03 05:24:37;;;;;;;9.15;3.03;;;;;;;3.19;99.14;100973.06;5032222;28;20018;-70
2021/12/03 05:27:03;;;;;;;17.00;3.20;;;;;;;3.18;99.06;100989.66;5032447;28;20030;-70
2021/12/03 05:29:28;;;;;;;14.35;3.30;;;;;;;3.19;99.03;100983.53;5032239;28;20041;-70
2021/12/03 05:31:53;;;;;;;8.70;3.50;;;;;;;3.20;98.54;100983.50;5032311;28;20462;-71
2021/12/03 05:34:20;;;;;;;12.52;3.55;;;;;;;3.22;98.92;100979.13;5030798;28;20064;-70
2021/12/03 05:36:46;;;;;;;8.80;3.20;;;;;;;3.23;98.54;100983.47;5032172;28;20028;-70
2021/12/03 05:39:12;;;;;;;8.77;2.50;;;;;;;3.25;98.39;100986.94;5030566;28;20519;-71
2021/12/03 05:41:37;;;;;;;8.13;2.83;;;;;;;3.28;98.10;100967.72;5032280;28;20025;-70
2021/12/03 05:44:06;;;;;;;17.02;3.33;;;;;;;3.28;97.79;100971.19;5028795;28;20414;-70
2021/12/03 05:46:31;;;;;;;13.38;3.40;;;;;;;3.30;97.98;100965.94;5012583;28;20106;-71
2021/12/03 05:48:57;;;;;;;14.88;3.20;;;;;;;3.32;97.61;100966.78;5012022;28;20378;-72
2021/12/03 05:51:25;;;;;;;10.82;3.40;;;;;;;3.33;97.47;100951.97;4995044;28;20065;-72
2021/12/03 05:53:51;;;;;;;14.50;3.28;;;;;;;3.38;97.32;100960.63;5012584;28;20486;-71
2021/12/03 05:56:16;;;;;;;13.80;3.28;;;;;;;3.39;97.73;100960.59;5028723;28;20064;-71
2021/12/03 05:58:41;;;;;;;12.27;3.17;;;;;;;3.38;97.07;100960.63;5032012;28;20095;-72
2021/12/03 06:01:07;;;;;;;8.88;3.30;;;;;;;3.40;97.23;100961.44;5030361;28;20021;-71
2021/12/03 06:03:32;;;;;;;16.75;4.18;;;;;;;3.41;97.07;100966.66;5031810;28;20040;-71
2021/12/03 06:05:57;;;;;;;12.60;3.40;;;;;;;3.42;96.51;100960.53;5043654;28;20116;-72
2021/12/03 06:08:23;;;;;;;12.73;3.92;;;;;;;3.46;96.42;100970.97;5049807;28;20090;-71
2021/12/03 06:10:48;;;;;;;16.75;3.45;;;;;;;3.48;95.83;100977.03;5031384;28;20075;-72
2021/12/03 06:13:13;;;;;;;11.98;4.30;;;;;;;3.46;95.24;100963.13;5014081;28;20136;-72
2021/12/03 06:15:39;;;;;;;9.18;3.05;;;;;;;3.51;95.50;100958.69;5031069;28;20108;-70
2021/12/03 06:18:04;;;;;;;11.98;3.33;;;;;;;3.53;94.99;100968.25;5047022;28;20159;-71
2021/12/03 06:20:30;;;;;;;10.95;2.85;;;;;;;3.58;94.59;100962.94;5051523;28;20033;-72
2021/12/03 06:22:55;;;;;;;9.95;2.72;;;;;;;3.59;93.81;100962.94;5026460;28;20135;-71
2021/12/03 06:25:21;;;;;;;14.82;3.58;;;;;;;3.65;93.11;100971.59;5015852;28;20022;-71
2021/12/03 06:27:47;;;;;;;11.35;2.83;;;;;;;3.66;93.14;100962.84;5028309;28;20102;-71
2021/12/03 06:30:17;;;;;;;14.25;3.05;;;;;;;3.66;92.34;100963.72;5035570;28;20041;-71
2021/12/03 06:32:43;;;;;;;11.70;3.15;;;;;;;3.67;92.75;100967.19;5033436;28;20022;-71
2021/12/03 06:35:11;;;;;;;14.93;3.28;;;;;;;3.64;92.27;100960.25;5035466;28;20109;-72
2021/12/03 06:37:37;;;;;;;8.60;2.63;;;;;;;3.62;92.34;100954.19;5028847;28;20037;-71
2021/12/03 06:40:06;;;;;;;21.15;3.15;;;;;;;3.64;91.41;100947.16;4997975;28;20032;-71
2021/12/03 06:42:31;;;;;;;12.75;3.20;;;;;;;3.59;91.58;100948.97;5015232;28;20475;-71
2021/12/03 06:44:57;;;;;;;10.75;2.95;;;;;;;3.56;91.79;100946.41;5016103;28;20053;-71
2021/12/03 06:47:23;;;;;;;16.33;3.88;;;;;;;3.52;91.99;100942.09;5015748;28;20036;-71
2021/12/03 06:49:48;;;;;;;12.20;2.90;;;;;;;3.54;90.93;100933.34;5035900;28;20038;-71
2021/12/03 06:52:16;;;;;;;14.40;3.20;;;;;;;3.50;91.04;100938.63;5034953;28;20026;-71
2021/12/03 06:54:43;;;;;;;15.65;3.78;;;;;;;3.47;90.93;100936.91;5032809;28;20032;-71
2021/12/03 06:57:10;;;;;;;14.07;3.17;;;;;;;3.48;90.42;100932.53;5034950;28;20101;-71
2021/12/03 06:59:37;;;;;;;12.07;3.35;;;;;;;3.46;90.47;100931.72;5022661;28;20025;-73
2021/12/03 07:02:03;;;;;;;17.38;3.65;;;;;;;3.49;89.64;100934.28;5014688;28;20030;-72
2021/12/03 07:04:29;;;;;;;12.10;3.38;;;;;;;3.44;90.27;100940.44;5015809;28;20021;-71
2021/12/03 07:06:54;;;;;;;10.00;3.10;;;;;;;3.44;89.66;100945.69;5015063;28;20026;-71
2021/12/03 07:09:19;;;;;;;14.80;3.53;;;;;;;3.43;89.59;100943.09;5018882;28;20030;-71
2021/12/03 07:11:45;;;;;;;16.67;3.80;;;;;;;3.43;89.53;100957.03;5034629;28;20087;-72
2021/12/03 07:14:11;;;;;;;13.57;3.28;;;;;;;3.37;89.80;100958.88;5034292;28;20077;-72
2021/12/03 07:16:36;;;;;;;14.05;3.72;;;;;;;3.36;89.21;100941.44;5033142;28;20068;-71
2021/12/03 07:19:03;;;;;;;14.88;4.80;;;;;;;3.31;89.44;100949.34;5016746;28;20057;-71
2021/12/03 07:21:32;;;;;;;22.63;4.20;;;;;;;3.28;89.27;100950.25;5017590;28;20061;-71
2021/12/03 07:23:57;;;;;;;17.20;3.95;;;;;;;3.25;89.15;100945.06;5014486;28;20471;-72
2021/12/03 07:26:23;;;;;;;17.13;4.28;;;;;;;3.22;90.15;100933.75;5015758;28;20030;-72
2021/12/03 07:28:50;;;;;;;15.13;3.88;;;;;;;3.20;89.53;100938.16;4996421;28;20508;-71
2021/12/03 07:31:16;;;;;;;16.88;4.93;;;;;;;3.18;88.82;100937.31;5023668;28;20084;-72
2021/12/03 07:33:41;;;;;;;21.95;5.15;;;;;;;3.16;88.93;100936.44;5034231;28;20421;-72
2021/12/03 07:36:07;;;;;;;12.05;4.03;;;;;;;3.15;88.74;100927.75;5032748;28;20112;-72
2021/12/03 07:38:34;;;;;;;11.43;3.30;;;;;;;3.16;89.14;100941.69;5032240;28;20087;-72
2021/12/03 07:41:00;;;;;;;12.38;3.90;;;;;;;3.15;88.58;100926.91;5031628;28;20021;-72
2021/12/03 07:43:26;;;;;;;13.70;4.10;;;;;;;3.12;89.01;100930.41;5023387;28;20056;-71
2021/12/03 07:45:51;;;;;;;13.98;4.00;;;;;;;3.15;88.97;100934.75;5027368;28;20053;-71
2021/12/03 07:48:22;;;;;;;13.02;4.03;;;;;;;3.10;88.65;100933.03;5049582;28;20021;-71
2021/12/03 07:50:48;;;;;;;15.63;4.18;;;;;;;3.11;88.45;100918.22;5047168;28;20075;-70
2021/12/03 07:53:17;;;;;;;15.98;4.18;;;;;;;3.11;88.37;100921.69;5022265;28;20032;-69
2021/12/03 07:55:44;;;;;;;14.98;3.92;;;;;;;3.11;87.88;100915.59;5027947;28;20102;-70
2021/12/03 07:58:10;;;;;;;29.88;5.32;;;;;;;3.11;87.93;100921.69;5030661;28;20053;-70
2021/12/03 08:00:36;;;;;;;11.75;3.65;;;;;;;3.13;87.71;100923.41;5019965;28;20034;-71
2021/12/03 08:03:02;;;;;;;11.57;3.63;;;;;;;3.10;87.22;100917.31;5040160;28;20024;-70
2021/12/03 08:05:27;;;;;;;11.10;3.40;;;;;;;3.14;87.43;100919.91;5053401;28;20021;-70
2021/12/03 08:07:53;;;;;;;11.10;3.33;;;;;;;3.11;88.45;100911.22;5040034;28;20029;-70
2021/12/03 08:10:19;;;;;;;14.35;3.75;;;;;;;3.11;88.56;100905.97;5033326;28;20026;-70
2021/12/03 08:12:45;;;;;;;21.35;4.90;;;;;;;3.12;88.50;100899.00;5023132;28;20049;-70
2021/12/03 08:15:11;;;;;;;14.55;4.28;;;;;;;3.16;88.49;100911.16;5017071;28;20502;-69
2021/12/03 08:17:37;;;;;;;13.38;3.72;;;;;;;3.19;88.63;100898.03;5013089;28;20029;-71
2021/12/03 08:20:04;;;;;;;15.43;4.40;;;;;;;3.18;88.75;100898.06;5033704;28;20373;-72
2021/12/03 08:22:30;;;;;;;23.55;5.25;;;;;;;3.20;88.38;100888.44;5032129;28;20045;-72
2021/12/03 08:24:55;;;;;;;15.00;4.13;;;;;;;3.20;88.51;100883.22;5032554;28;20025;-72
2021/12/03 08:27:21;;;;;;;14.80;4.85;;;;;;;3.20;89.04;100893.69;5033110;28;20030;-71
2021/12/03 08:29:46;;;;;;;13.32;3.75;;;;;;;3.25;88.85;100890.09;5032875;28;20033;-76
2021/12/03 08:32:12;;;;;;;15.13;3.53;;;;;;;3.27;87.90;100884.84;5032963;28;20021;-72
2021/12/03 08:34:38;;;;;;;15.50;4.00;;;;;;;3.26;88.19;100875.25;5031624;28;20025;-74
2021/12/03 08:37:06;;;;;;;13.13;3.30;;;;;;;3.28;88.26;100873.50;5029996;28;20029;-72
2021/12/03 08:39:32;;;;;;;10.52;3.10;;;;;;;3.36;86.66;100870.75;5013835;28;20112;-71
2021/12/03 08:41:58;;;;;;;12.18;3.03;;;;;;;3.42;86.06;100857.59;5013400;28;20036;-72
2021/12/03 08:44:24;;;;;;;8.32;2.50;;;;;;;3.48;85.72;100867.09;5030075;28;20052;-72
2021/12/03 08:46:57;;;;;;;14.25;3.65;;;;;;;3.56;85.98;100870.47;5031735;28;20496;-71
2021/12/03 08:49:29;;;;;;;14.80;3.13;;;;;;;3.56;86.01;100879.19;5013118;28;20117;-71
2021/12/03 08:52:49;;;;;;;11.90;3.10;;;;;;;3.57;86.03;100866.97;5012867;28;20025;-71
2021/12/03 08:54:54;;;;;;;7.85;2.40;;;;;;;3.58;85.63;100866.06;5013412;28;20080;-70
2021/12/03 08:57:32;;;;;;;9.85;2.30;;;;;;;3.57;85.61;100865.19;5031297;28;20028;-70
2021/12/03 09:00:01;;;;;;;9.45;2.45;;;;;;;3.60;85.83;100856.44;5032646;28;20095;-71
2021/12/03 09:02:27;;;;;;;9.10;2.78;;;;;;;3.65;85.44;100845.91;5030921;28;20049;-71
2021/12/03 09:04:52;;;;;;;15.70;2.83;;;;;;;3.65;85.12;100843.28;5032108;28;20481;-71
2021/12/03 09:07:18;;;;;;;9.23;2.78;;;;;;;3.74;85.58;100840.50;5032725;28;20025;-70
2021/12/03 09:09:44;;;;;;;10.00;2.67;;;;;;;3.79;84.93;100828.19;5032682;28;20022;-70
2021/12/03 09:12:09;;;;;;;30.20;6.07;;;;;;;3.81;83.68;100836.03;5034289;28;20033;-70
2021/12/03 09:14:49;;;;;;;7.65;2.15;;;;;;;3.85;83.04;100803.63;5020931;28;20176;-70
2021/12/03 09:22:19;;;;;;;8.00;2.75;;;;;;;3.89;84.07;100819.28;5032645;28;20393;-69
2021/12/03 09:24:44;;;;;;;;;;;;;;;3.89;83.80;100814.03;5032995;28;20029;-70
2021/12/03 09:27:09;;;;;;;7.25;2.50;;;;;;;3.83;83.95;100811.53;5012880;28;19913;-70
2021/12/03 09:29:36;;;;;;;12.10;3.20;;;;;;;3.74;84.99;100820.41;5032080;28;20025;-72
2021/12/03 09:32:02;;;;;;;7.50;2.35;;;;;;;3.64;85.00;100820.59;5032826;28;20052;-71
2021/12/03 09:34:30;;;;;;;11.35;2.95;;;;;;;3.61;85.88;100803.19;5032242;28;20029;-71
2021/12/03 09:36:56;;;;;;;11.20;3.22;;;;;;;3.55;86.56;100805.91;5027263;28;20026;-70
2021/12/03 09:39:23;;;;;;;8.30;2.78;;;;;;;3.50;86.63;100823.44;5012569;28;20057;-71
2021/12/03 09:41:51;;;;;;;12.70;3.15;;;;;;;3.40;87.17;100810.50;5012828;28;20501;-71
2021/12/03 09:44:17;;;;;;;12.65;3.20;;;;;;;3.34;87.46;100807.97;5012366;28;20030;-71
2021/12/03 09:46:43;;;;;;;8.48;3.22;;;;;;;3.31;87.17;100822.84;5018215;28;20494;-70
2021/12/03 09:57:07;;;;;;;17.17;4.57;;;;;;;3.14;89.65;100808.25;5031630;28;20053;-70
2021/12/03 10:04:43;;;;;;;15.73;4.40;;;;;;;2.91;91.17;100785.03;5049578;28;20424;-72
2021/12/03 10:15:22;;;;;;;18.63;5.22;;;;;;;2.79;94.52;100760.78;5015279;28;20603;-71
2021/12/03 10:18:05;;;;;;;16.33;5.05;;;;;;;2.75;95.14;100763.47;5034541;28;20094;-70
2021/12/03 10:29:09;;;;;;;15.02;5.78;;;;;;;2.76;97.65;100753.00;5035542;28;20052;-75
2021/12/03 10:44:48;;;;;;;16.23;5.50;;;;;;;3.03;97.83;100714.25;5015602;28;20510;-71
2021/12/03 10:52:55;;;;;;;17.42;5.82;;;;;;;3.16;97.21;100716.66;5029947;28;20044;-72
2021/12/03 11:17:51;;;;;;;16.52;5.10;;;;;;;3.59;93.07;100655.69;4992910;28;20044;-72
2021/12/03 11:51:07;;;;;;;12.48;4.50;;;;;;;3.85;93.40;100605.44;5035527;28;20488;-73
2021/12/03 12:22:38;;;;;;;10.70;3.85;;;;;;;4.36;87.34;100514.31;4953466;28;20046;-71
2021/12/03 13:15:57;;;;;;;11.40;4.68;;;;;;;4.19;92.03;100439.56;5032104;28;20059;-71
2021/12/03 14:34:12;;;;;;;9.80;5.05;;;;;;;4.03;99.71;100440.84;5037758;28;20539;-70
2021/12/03 14:38:06;;;;;;;9.02;4.80;;;;;;;3.98;99.85;100443.59;5035474;28;20037;-71
2021/12/03 14:56:05;;;;;;;9.65;5.22;;;;;;;3.89;100.00;100438.59;5035019;28;20533;-72
2021/12/03 15:01:08;;;;;;;12.10;6.13;;;;;;;3.88;100.00;100414.13;5035385;28;20042;-70
2021/12/03 15:06:31;;;;;;;8.13;5.57;;;;;;;3.90;100.00;100424.56;4981950;28;20181;-69
2021/12/03 15:20:19;;;;;;;9.75;6.03;;;;;;;3.96;100.00;100411.31;4905864;29;20089;-70
2021/12/03 15:25:16;;;;;;;21.35;8.32;;;;;;;4.01;100.00;100406.81;4898130;29;20045;-70
2021/12/03 15:35:51;;;;;;;9.80;5.97;;;;;;;4.10;100.00;100376.91;4876785;29;20088;-70
2021/12/03 15:53:08;;;;;;;10.25;7.20;;;;;;;4.19;100.00;100367.97;4881320;29;20553;-71
2021/12/03 15:58:36;;;;;;;10.40;7.28;;;;;;;4.22;100.00;100357.38;4838994;29;20042;-71
2021/12/03 16:03:57;;;;;;;10.43;7.43;;;;;;;4.25;99.57;100352.94;4820868;29;20089;-70
2021/12/03 16:08:49;;;;;;;12.50;7.72;;;;;;;4.28;99.77;100354.59;4804209;29;20034;-70
2021/12/03 16:11:33;;;;;;;12.25;7.60;;;;;;;4.29;99.67;100352.88;4803122;29;20043;-69
2021/12/03 16:14:33;;;;;;;10.48;6.82;;;;;;;4.34;99.77;100351.84;4843285;29;20045;-69
2021/12/03 16:53:36;;;;;;;13.52;8.85;;;;;;;4.44;99.21;100360.31;5011177;28;20038;-70
2021/12/03 16:58:35;;;;;;;14.82;10.32;;;;;;;4.33;100.00;100357.97;5012200;28;20040;-71
2021/12/03 17:01:07;;;;;;;14.05;10.73;;;;;;;4.29;100.00;100340.59;5007048;28;20026;-70
2021/12/03 17:03:51;;;;;;;15.52;10.60;;;;;;;4.29;100.00;100335.38;4993410;28;20038;-69
2021/12/03 17:11:38;;;;;;;21.55;14.10;;;;;;;4.20;100.00;100320.75;4996452;28;20401;-69
2021/12/03 17:14:47;;;;;;;21.52;15.15;;;;;;;4.18;100.00;100312.09;5010817;28;20065;-69
2021/12/03 17:17:16;;;;;;;24.52;15.40;;;;;;;4.18;100.00;100312.09;5031630;28;20053;-69
2021/12/03 17:20:23;;;;;;;23.67;16.55;;;;;;;4.17;100.00;100309.47;5031178;28;20052;-68
2021/12/03 17:48:24;;;;;;;30.10;16.98;;;;;;;4.16;100.00;100308.63;4973579;28;20158;-70
2021/12/03 17:53:21;;;;;;;30.23;16.98;;;;;;;4.17;100.00;100301.63;4970867;28;20070;-68
2021/12/03 17:58:39;;;;;;;33.95;18.65;;;;;;;4.16;100.00;100294.69;4970578;28;20129;-71
2021/12/03 18:06:44;;;;;;;29.98;16.48;;;;;;;4.20;100.00;100278.81;4970308;28;20039;-69
2021/12/03 18:57:18;;;;;;;35.15;16.80;;;;;;;3.95;100.00;100291.72;5024472;28;20394;-71
2021/12/03 18:59:53;;;;;;;30.58;17.27;;;;;;;3.93;100.00;100298.75;5015548;28;20053;-71
2021/12/03 19:02:21;;;;;;;33.80;15.82;;;;;;;3.91;100.00;100290.94;5016530;28;20021;-69
2021/12/03 19:04:51;;;;;;;30.17;15.95;;;;;;;3.92;100.00;100303.13;5017524;28;20034;-70